Time;durP1;ratioP1;P1;durP2;ratioP2;P2;SDS_P1;SDS_P2;PMS_P1;PMS_P2;Temp;Humidity;BMP_temperature;BMP_pressure;BME280_temperature;BME280_humidity;BME280_pressure;Samples;Min_cycle;Max_cycle;Signal;HPM_P1;HPM_P2
2022/10/10 00:01:10;;;;;;;33.30;22.80;;;;;;;5.41;77.02;101838.47;1681130;84;26396;-81
2022/10/10 00:03:37;;;;;;;36.95;22.50;;;;;;;5.38;76.93;101835.23;1685687;84;26039;-80
2022/10/10 00:06:04;;;;;;;34.23;23.18;;;;;;;5.34;76.71;101828.47;1673099;84;25893;-81
2022/10/10 00:08:30;;;;;;;36.13;22.20;;;;;;;5.30;76.51;101831.02;1675648;84;28587;-80
2022/10/10 00:10:57;;;;;;;34.58;21.80;;;;;;;5.24;76.64;101831.00;1674461;84;25837;-80
2022/10/10 00:13:23;;;;;;;33.02;22.42;;;;;;;5.22;76.60;101827.63;1676874;84;25899;-81
2022/10/10 00:15:49;;;;;;;32.80;19.85;;;;;;;5.18;76.47;101832.83;1678650;84;25902;-80
2022/10/10 00:18:16;;;;;;;31.77;20.40;;;;;;;5.14;76.50;101830.06;1679127;84;25988;-80
2022/10/10 00:20:42;;;;;;;28.67;20.30;;;;;;;5.11;76.44;101821.50;1655007;85;28032;-80
2022/10/10 00:23:09;;;;;;;28.73;20.27;;;;;;;5.07;76.34;101822.20;1678987;84;25771;-79
2022/10/10 00:25:36;;;;;;;27.87;21.55;;;;;;;5.02;76.32;101827.06;1669690;84;25924;-80
2022/10/10 00:28:04;;;;;;;31.85;20.90;;;;;;;4.98;76.48;101826.95;1684504;84;25966;-80
2022/10/10 00:30:31;;;;;;;33.13;22.35;;;;;;;4.95;76.52;101819.20;1654054;86;25312;-80
2022/10/10 00:32:59;;;;;;;30.82;20.65;;;;;;;4.93;76.51;101818.48;1687777;84;27465;-80
2022/10/10 00:35:27;;;;;;;30.02;20.72;;;;;;;4.90;76.59;101826.67;1673205;84;25938;-79
2022/10/10 00:37:54;;;;;;;29.27;20.32;;;;;;;4.87;76.64;101830.06;1679974;84;26460;-79
2022/10/10 00:40:21;;;;;;;32.23;22.15;;;;;;;4.82;76.64;101821.13;1679755;84;25907;-79
2022/10/10 00:42:47;;;;;;;37.48;22.93;;;;;;;4.80;76.68;101832.35;1686218;84;25943;-80
2022/10/10 00:45:33;;;;;;;34.35;22.67;;;;;;;4.79;76.66;101824.02;1682593;84;27634;-79
2022/10/10 00:48:08;;;;;;;34.03;22.05;;;;;;;4.80;76.74;101818.23;1679576;84;25873;-79
2022/10/10 00:50:43;;;;;;;34.78;21.90;;;;;;;4.79;76.75;101829.32;1684534;84;25741;-80
2022/10/10 00:53:12;;;;;;;32.55;21.70;;;;;;;4.79;76.78;101820.54;1686650;84;25833;-80
2022/10/10 00:55:38;;;;;;;37.13;23.98;;;;;;;4.77;76.30;101816.66;1692211;84;26312;-80
2022/10/10 00:58:06;;;;;;;32.53;22.52;;;;;;;4.74;76.40;101807.63;1695231;84;27456;-80
2022/10/10 01:00:33;;;;;;;36.15;21.45;;;;;;;4.69;76.18;101813.28;1682548;84;25932;-80
2022/10/10 01:02:59;;;;;;;32.70;21.75;;;;;;;4.61;76.16;101813.05;1678842;84;25870;-80
2022/10/10 01:05:25;;;;;;;31.68;21.70;;;;;;;4.58;76.33;101811.94;1683259;84;25858;-82
2022/10/10 01:07:53;;;;;;;31.15;21.02;;;;;;;4.53;76.29;101811.44;1661595;84;25985;-80
2022/10/10 01:10:21;;;;;;;30.52;20.43;;;;;;;4.50;76.37;101811.70;1686162;84;28326;-80
2022/10/10 01:13:06;;;;;;;32.48;20.97;;;;;;;4.50;76.32;101810.84;1681033;84;26206;-80
2022/10/10 01:15:43;;;;;;;35.17;21.97;;;;;;;4.47;76.15;101815.08;1679355;84;25627;-80
2022/10/10 01:19:07;;;;;;;32.30;23.40;;;;;;;4.44;76.07;101814.83;1679030;84;26453;-81
2022/10/10 01:22:10;;;;;;;34.60;23.02;;;;;;;4.43;76.19;101812.27;1696743;84;26576;-79
2022/10/10 01:24:48;;;;;;;37.13;23.65;;;;;;;4.38;76.31;101813.13;1679535;84;28409;-80
2022/10/10 01:27:31;;;;;;;34.00;23.47;;;;;;;4.37;76.50;101820.70;1638455;85;25860;-81
2022/10/10 01:30:03;;;;;;;37.30;22.95;;;;;;;4.38;76.64;101821.08;1678104;84;25793;-80
2022/10/10 01:32:38;;;;;;;39.45;23.02;;;;;;;4.37;76.67;101817.58;1678524;84;25835;-80
2022/10/10 01:35:34;;;;;;;37.55;24.12;;;;;;;4.36;76.42;101819.03;1681142;84;26070;-80
2022/10/10 01:38:28;;;;;;;36.25;23.12;;;;;;;4.32;76.34;101820.23;1683869;84;27546;-80
2022/10/10 01:41:09;;;;;;;37.17;22.02;;;;;;;4.27;76.47;101822.38;1692208;84;25736;-80
2022/10/10 01:43:36;;;;;;;;;;;;;;;4.24;76.58;101814.16;1674003;84;25769;-80
2022/10/10 01:46:14;;;;;;;36.60;22.87;;;;;;;4.23;76.70;101809.84;1668723;84;26088;-80
2022/10/10 01:48:44;;;;;;;35.55;22.85;;;;;;;4.21;76.82;101814.89;1682930;84;25830;-80
2022/10/10 01:51:25;;;;;;;34.98;23.07;;;;;;;4.19;76.91;101813.66;1658056;84;27720;-80
2022/10/10 01:54:32;;;;;;;34.33;23.00;;;;;;;4.17;76.83;101806.81;1675583;84;26006;-81
2022/10/10 01:57:25;;;;;;;36.00;23.52;;;;;;;4.15;76.87;101806.08;1683192;84;25734;-81
2022/10/10 02:00:11;;;;;;;36.73;24.65;;;;;;;4.11;76.81;101800.14;1676262;84;25962;-81
2022/10/10 02:02:49;;;;;;;36.73;23.20;;;;;;;4.03;76.53;101801.20;1682343;84;25772;-81
2022/10/10 02:05:42;;;;;;;35.08;23.27;;;;;;;3.99;76.49;101802.41;1683969;84;28420;-80
2022/10/10 02:08:22;;;;;;;42.62;26.20;;;;;;;3.96;76.56;101801.30;1643142;85;25797;-80
2022/10/10 02:10:54;;;;;;;38.55;23.50;;;;;;;3.93;76.46;101798.89;1646555;86;34892;-80
2022/10/10 02:13:26;;;;;;;41.10;24.82;;;;;;;3.91;76.62;101803.47;1682062;84;26569;-79
2022/10/10 02:15:55;;;;;;;43.13;24.65;;;;;;;3.88;76.54;101803.21;1676556;84;26605;-79
2022/10/10 02:18:26;;;;;;;45.00;24.60;;;;;;;3.81;76.52;101799.31;1677100;84;27481;-78
2022/10/10 02:20:54;;;;;;;36.55;22.73;;;;;;;3.74;76.58;101802.05;1682993;84;25846;-79
2022/10/10 02:23:21;;;;;;;34.78;22.02;;;;;;;3.68;76.49;101791.05;1683694;84;25904;-79
2022/10/10 02:25:52;;;;;;;38.45;23.57;;;;;;;3.59;76.43;101789.93;1673966;84;26577;-79
2022/10/10 02:28:39;;;;;;;34.73;22.27;;;;;;;3.54;76.81;101793.89;1682881;84;26484;-79
2022/10/10 02:31:14;;;;;;;33.67;20.88;;;;;;;3.51;76.92;101789.66;1676659;84;27464;-80
2022/10/10 02:33:57;;;;;;;35.78;20.95;;;;;;;3.45;76.63;101791.91;1681848;84;26056;-81
2022/10/10 02:36:26;;;;;;;34.88;21.77;;;;;;;3.40;76.74;101792.23;1685546;84;25316;-81
2022/10/10 02:38:54;;;;;;;33.20;20.32;;;;;;;3.37;76.82;101785.01;1682059;84;25783;-81
2022/10/10 02:41:22;;;;;;;38.40;21.90;;;;;;;3.38;77.23;101788.03;1682052;84;25790;-81
2022/10/10 02:43:50;;;;;;;42.70;22.00;;;;;;;3.39;77.43;101777.80;1655281;84;27653;-81
2022/10/10 02:46:16;;;;;;;40.83;23.85;;;;;;;3.41;77.90;101785.14;1692961;84;25890;-82
2022/10/10 02:48:43;;;;;;;38.70;22.55;;;;;;;3.42;77.77;101783.70;1681265;84;25809;-81
2022/10/10 02:51:12;;;;;;;37.00;21.70;;;;;;;3.42;77.62;101789.50;1680596;84;25779;-81
2022/10/10 02:53:38;;;;;;;40.40;23.65;;;;;;;3.41;77.56;101790.45;1688923;83;26425;-81
2022/10/10 02:56:05;;;;;;;37.00;22.48;;;;;;;3.37;77.56;101788.51;1699942;83;28292;-81
2022/10/10 02:58:32;;;;;;;39.25;21.65;;;;;;;3.36;77.62;101782.01;1675361;84;25820;-81
2022/10/10 03:00:58;;;;;;;34.10;21.12;;;;;;;3.36;77.62;101786.80;1675134;84;25781;-79
2022/10/10 03:03:24;;;;;;;34.13;21.33;;;;;;;3.37;77.51;101785.01;1688580;84;26613;-79
2022/10/10 03:05:51;;;;;;;35.73;22.55;;;;;;;3.36;77.48;101781.50;1695599;84;25887;-79
2022/10/10 03:08:17;;;;;;;32.58;20.97;;;;;;;3.36;77.35;101784.16;1676248;84;27625;-80
2022/10/10 03:10:56;;;;;;;42.60;23.60;;;;;;;3.36;77.33;101788.63;1679351;84;26080;-80
2022/10/10 03:13:23;;;;;;;36.33;23.05;;;;;;;3.34;77.28;101782.09;1674448;84;25768;-80
2022/10/10 03:15:49;;;;;;;35.50;21.70;;;;;;;3.32;77.26;101780.52;1678268;84;25806;-80
2022/10/10 03:18:16;;;;;;;35.23;22.85;;;;;;;3.33;77.22;101780.90;1686780;84;25810;-81
2022/10/10 03:20:51;;;;;;;34.95;21.87;;;;;;;3.32;77.23;101776.55;1677993;84;27442;-80
2022/10/10 03:23:18;;;;;;;41.73;24.30;;;;;;;3.32;77.18;101779.19;1653744;84;25977;-80
2022/10/10 03:25:44;;;;;;;46.10;25.97;;;;;;;3.30;77.22;101772.69;1676615;84;25846;-81
2022/10/10 03:28:11;;;;;;;38.78;23.67;;;;;;;3.28;77.25;101774.61;1677343;84;26335;-80
2022/10/10 03:30:38;;;;;;;39.90;23.95;;;;;;;3.28;77.37;101777.25;1676876;84;25805;-80
2022/10/10 03:33:05;;;;;;;34.92;21.35;;;;;;;3.28;77.56;101777.25;1677709;84;27518;-80
2022/10/10 03:35:32;;;;;;;31.25;20.40;;;;;;;3.27;77.73;101776.91;1649820;84;27189;-81
2022/10/10 03:37:59;;;;;;;34.48;22.10;;;;;;;3.29;77.85;101778.96;1692935;84;26708;-80
2022/10/10 03:40:28;;;;;;;32.08;20.95;;;;;;;3.29;77.79;101782.94;1681052;84;25922;-80
2022/10/10 03:42:55;;;;;;;32.98;20.88;;;;;;;3.30;77.71;101790.38;1685149;84;26454;-80
2022/10/10 03:45:21;;;;;;;39.03;22.30;;;;;;;3.29;77.58;101785.58;1671194;84;27464;-80
2022/10/10 03:47:48;;;;;;;35.48;22.65;;;;;;;3.28;77.39;101788.31;1675369;84;26070;-80
2022/10/10 03:50:14;;;;;;;37.80;22.80;;;;;;;3.24;77.16;101786.85;1658852;84;25947;-80
2022/10/10 03:52:41;;;;;;;35.58;20.40;;;;;;;3.20;77.27;101789.36;1685281;84;25871;-80
2022/10/10 03:55:07;;;;;;;39.23;22.45;;;;;;;3.16;77.28;101795.36;1680938;84;25766;-81
2022/10/10 03:57:34;;;;;;;34.38;21.52;;;;;;;3.12;77.27;101793.89;1654926;84;27746;-81
2022/10/10 04:00:00;;;;;;;33.70;20.43;;;;;;;3.08;77.22;101785.77;1691660;84;25932;-81
2022/10/10 04:02:26;;;;;;;39.90;22.40;;;;;;;3.07;77.26;101797.34;1673404;84;25793;-80
2022/10/10 04:04:52;;;;;;;34.80;21.62;;;;;;;3.05;77.33;101803.22;1680270;84;26012;-80
2022/10/10 04:07:19;;;;;;;32.10;20.77;;;;;;;3.06;77.48;101789.86;1687148;84;25632;-79
2022/10/10 04:09:45;;;;;;;28.12;19.07;;;;;;;3.06;77.59;101793.84;1687480;84;27664;-81
2022/10/10 04:12:11;;;;;;;31.85;20.00;;;;;;;3.07;77.84;101793.37;1682021;83;26040;-80
2022/10/10 04:14:38;;;;;;;33.20;20.10;;;;;;;3.09;77.83;101785.69;1656624;85;25545;-80
2022/10/10 04:17:04;;;;;;;39.45;22.45;;;;;;;3.11;77.78;101787.75;1633308;87;25872;-80
2022/10/10 04:19:31;;;;;;;32.80;20.27;;;;;;;3.11;77.68;101774.98;1652233;85;25796;-80
2022/10/10 04:21:57;;;;;;;32.28;20.00;;;;;;;3.05;77.13;101780.72;1677896;84;28327;-80
2022/10/10 04:24:23;;;;;;;34.90;20.15;;;;;;;2.98;76.95;101772.84;1677916;84;25941;-80
2022/10/10 04:26:50;;;;;;;31.93;19.05;;;;;;;2.85;76.97;101772.02;1680022;84;25911;-80
2022/10/10 04:29:16;;;;;;;30.50;18.55;;;;;;;2.78;77.26;101774.75;1683867;83;25891;-80
2022/10/10 04:31:42;;;;;;;30.43;18.50;;;;;;;2.74;77.44;101786.48;1684405;83;25785;-81
2022/10/10 04:34:08;;;;;;;32.53;19.32;;;;;;;2.74;77.71;101785.16;1688848;83;27442;-80
2022/10/10 04:36:35;;;;;;;35.00;19.20;;;;;;;2.71;77.72;101781.42;1682025;83;25881;-80
2022/10/10 04:39:02;;;;;;;35.80;20.60;;;;;;;2.72;78.02;101777.80;1683069;84;26416;-80
2022/10/10 04:41:28;;;;;;;39.13;22.42;;;;;;;2.73;78.37;101773.75;1682182;83;25801;-80
2022/10/10 04:43:54;;;;;;;39.70;23.32;;;;;;;2.76;78.53;101780.62;1681449;84;25803;-80
2022/10/10 04:46:21;;;;;;;41.70;24.92;;;;;;;2.78;78.57;101778.22;1685929;83;28273;-80
2022/10/10 04:48:47;;;;;;;40.95;23.02;;;;;;;2.79;78.43;101769.34;1679083;84;25820;-81
2022/10/10 04:51:13;;;;;;;59.23;31.42;;;;;;;2.80;78.24;101768.38;1679494;84;26327;-80
2022/10/10 04:53:39;;;;;;;57.15;36.77;;;;;;;2.79;78.39;101764.05;1693800;84;26244;-79
2022/10/10 04:56:06;;;;;;;51.68;31.07;;;;;;;2.78;78.93;101762.84;1687961;84;26083;-80
2022/10/10 04:58:33;;;;;;;60.35;27.67;;;;;;;2.75;79.09;101759.94;1651896;84;28336;-80
2022/10/10 05:00:59;;;;;;;48.25;27.55;;;;;;;2.72;79.10;101754.00;1685419;84;25975;-80
2022/10/10 05:03:26;;;;;;;46.50;25.45;;;;;;;2.70;79.26;101759.88;1691752;83;25833;-80
2022/10/10 05:05:52;;;;;;;51.00;27.70;;;;;;;2.70;79.36;101755.44;1686282;83;26549;-80
2022/10/10 05:08:19;;;;;;;45.20;24.70;;;;;;;2.72;79.42;101753.52;1678288;84;26465;-80
2022/10/10 05:10:46;;;;;;;46.35;24.72;;;;;;;2.72;79.38;101757.49;1682199;84;27341;-81
2022/10/10 05:13:14;;;;;;;39.85;23.05;;;;;;;2.73;79.40;101751.27;1689780;83;25888;-81
2022/10/10 05:15:42;;;;;;;39.30;23.10;;;;;;;2.73;79.57;101754.38;1654690;84;26493;-79
2022/10/10 05:18:08;;;;;;;40.43;23.65;;;;;;;2.74;79.60;101749.44;1680265;83;25877;-81
2022/10/10 05:20:35;;;;;;;40.63;22.85;;;;;;;2.74;79.60;101755.58;1659550;84;25840;-81
2022/10/10 05:23:02;;;;;;;40.10;22.80;;;;;;;2.75;79.56;101754.64;1681947;83;27485;-80
2022/10/10 05:25:29;;;;;;;34.27;20.77;;;;;;;2.77;79.46;101744.80;1688577;84;25776;-80
2022/10/10 05:27:55;;;;;;;39.40;22.42;;;;;;;2.78;79.68;101749.12;1673410;84;25825;-80
2022/10/10 05:30:21;;;;;;;35.90;20.25;;;;;;;2.80;79.63;101742.42;1679668;83;25799;-81
2022/10/10 05:32:48;;;;;;;35.58;20.92;;;;;;;2.82;79.74;101745.80;1686463;83;25821;-81
2022/10/10 05:35:14;;;;;;;35.38;20.02;;;;;;;2.81;79.82;101748.91;1683503;84;28292;-80
2022/10/10 05:37:40;;;;;;;33.65;21.02;;;;;;;2.82;79.71;101761.17;1680242;84;25929;-80
2022/10/10 05:40:08;;;;;;;38.13;21.77;;;;;;;2.83;79.81;101756.27;1692063;83;25784;-81
2022/10/10 05:42:34;;;;;;;31.30;19.27;;;;;;;2.85;79.95;101750.38;1676537;84;25776;-80
2022/10/10 05:45:00;;;;;;;34.55;19.52;;;;;;;2.88;80.12;101751.97;1683685;84;25724;-80
2022/10/10 05:47:27;;;;;;;34.60;19.35;;;;;;;2.91;80.21;101750.41;1691161;84;28294;-80
2022/10/10 05:49:53;;;;;;;31.15;18.45;;;;;;;2.95;80.61;101745.29;1650175;85;25768;-81
2022/10/10 05:52:19;;;;;;;38.40;19.48;;;;;;;3.00;81.48;101741.34;1681938;84;25879;-81
2022/10/10 05:54:46;;;;;;;31.33;18.35;;;;;;;3.06;82.20;101731.63;1647680;85;26434;-80
2022/10/10 05:57:12;;;;;;;30.97;19.05;;;;;;;3.11;82.61;101733.48;1603976;87;25892;-80
2022/10/10 05:59:39;;;;;;;30.75;17.98;;;;;;;3.18;83.39;101734.34;1681193;84;28283;-80
2022/10/10 06:02:05;;;;;;;28.52;18.60;;;;;;;3.26;84.45;101738.13;1650471;84;25791;-80
2022/10/10 06:04:32;;;;;;;32.85;19.62;;;;;;;3.35;85.12;101736.61;1650277;84;25864;-80
2022/10/10 06:06:58;;;;;;;35.50;19.05;;;;;;;3.43;85.62;101729.79;1688190;84;25817;-80
2022/10/10 06:09:24;;;;;;;33.28;19.77;;;;;;;3.49;85.95;101724.03;1686012;84;25797;-80
2022/10/10 06:11:51;;;;;;;35.88;20.50;;;;;;;3.58;86.63;101730.45;1647057;84;27674;-80
2022/10/10 06:14:17;;;;;;;37.20;19.15;;;;;;;3.66;87.09;101718.79;1651791;84;26454;-80
2022/10/10 06:16:44;;;;;;;37.05;22.62;;;;;;;3.75;87.73;101723.41;1681833;84;25936;-80
2022/10/10 06:19:11;;;;;;;39.88;23.65;;;;;;;3.84;88.45;101730.20;1683917;84;26589;-80
2022/10/10 06:21:37;;;;;;;105.12;51.48;;;;;;;3.94;88.72;101725.02;1673782;84;25298;-80
2022/10/10 06:24:04;;;;;;;147.15;69.32;;;;;;;4.05;89.23;101730.83;1680191;84;27455;-81
2022/10/10 06:26:30;;;;;;;51.65;30.55;;;;;;;4.13;89.51;101733.26;1679274;84;26503;-80
2022/10/10 06:28:57;;;;;;;146.18;67.50;;;;;;;4.23;90.03;101741.36;1681171;83;25898;-81
2022/10/10 06:31:23;;;;;;;451.43;207.15;;;;;;;4.31;90.02;101729.20;1681854;83;26021;-80
2022/10/10 06:33:51;;;;;;;72.75;44.08;;;;;;;4.40;90.22;101737.78;1689058;83;25852;-80
2022/10/10 06:36:18;;;;;;;95.07;63.15;;;;;;;4.50;90.79;101735.23;1684578;84;28306;-80
2022/10/10 06:38:45;;;;;;;76.90;52.98;;;;;;;4.59;90.97;101730.53;1681246;84;26017;-80
2022/10/10 06:41:12;;;;;;;91.37;55.55;;;;;;;4.68;91.04;101729.81;1685581;84;25842;-80
2022/10/10 06:43:40;;;;;;;198.10;110.75;;;;;;;4.78;91.40;101738.73;1652088;84;25944;-80
2022/10/10 06:46:06;;;;;;;49.18;28.35;;;;;;;4.87;91.54;101732.70;1680976;84;26190;-81
2022/10/10 06:48:34;;;;;;;105.45;59.45;;;;;;;4.96;91.70;101725.30;1688130;83;27534;-81
2022/10/10 06:51:07;;;;;;;46.95;28.62;;;;;;;5.07;91.96;101735.08;1678294;84;25595;-80
2022/10/10 06:53:34;;;;;;;38.75;25.05;;;;;;;5.16;92.13;101730.33;1679786;84;26314;-81
2022/10/10 06:56:01;;;;;;;36.13;24.45;;;;;;;5.24;92.34;101720.77;1691153;83;26463;-80
2022/10/10 06:58:28;;;;;;;34.18;23.32;;;;;;;5.33;92.52;101714.71;1693988;84;25817;-80
2022/10/10 07:01:01;;;;;;;38.78;25.12;;;;;;;5.43;92.92;101716.96;1682347;84;28260;-81
2022/10/10 07:03:29;;;;;;;38.28;23.45;;;;;;;5.55;93.19;101721.76;1679255;84;25344;-80
2022/10/10 07:05:59;;;;;;;35.08;24.02;;;;;;;5.67;93.70;101719.40;1695350;83;26326;-80
2022/10/10 07:08:26;;;;;;;43.25;26.73;;;;;;;5.78;93.73;101719.34;1690451;83;26049;-80
2022/10/10 07:10:52;;;;;;;38.33;23.30;;;;;;;5.90;94.39;101724.98;1679860;84;25902;-80
2022/10/10 07:13:19;;;;;;;47.23;28.07;;;;;;;6.04;94.50;101723.35;1681393;84;27567;-80
2022/10/10 07:15:45;;;;;;;38.53;22.80;;;;;;;6.14;94.43;101726.05;1689120;84;25900;-80
2022/10/10 07:18:12;;;;;;;39.67;24.63;;;;;;;6.24;94.50;101722.47;1684627;84;25769;-80
2022/10/10 07:20:39;;;;;;;37.75;23.22;;;;;;;6.41;95.73;101722.86;1685729;84;26661;-82
2022/10/10 07:23:06;;;;;;;39.92;22.98;;;;;;;6.53;95.51;101719.97;1679001;84;26539;-81
2022/10/10 07:25:32;;;;;;;34.65;20.77;;;;;;;6.66;95.41;101723.73;1681441;84;28327;-87
2022/10/10 07:27:58;;;;;;;32.50;19.35;;;;;;;6.78;95.53;101712.00;1693713;84;25773;-88
2022/10/10 07:30:25;;;;;;;30.88;19.57;;;;;;;6.89;95.59;101707.42;1678475;84;25859;-86
2022/10/10 07:32:54;;;;;;;27.67;18.98;;;;;;;7.01;95.58;101706.31;1676539;84;25998;-87
2022/10/10 07:35:22;;;;;;;33.63;25.70;;;;;;;7.15;95.94;101699.77;1684065;84;25805;-86
2022/10/10 07:37:54;;;;;;;29.30;17.77;;;;;;;7.31;96.06;101705.89;1681606;84;27554;-87
2022/10/10 07:40:20;;;;;;;30.40;18.30;;;;;;;7.44;95.88;101709.13;1680924;84;26532;-83
2022/10/10 07:42:47;;;;;;;31.07;16.80;;;;;;;7.57;95.81;101700.38;1682772;84;25959;-82
2022/10/10 07:45:14;;;;;;;28.25;18.60;;;;;;;7.70;95.73;101700.90;1686213;84;26652;-85
2022/10/10 07:47:40;;;;;;;24.15;16.40;;;;;;;7.84;95.56;101698.30;1683333;84;25849;-87
2022/10/10 07:50:10;;;;;;;25.20;16.20;;;;;;;7.97;95.26;101698.84;1695744;83;27543;-87
2022/10/10 07:52:38;;;;;;;21.80;15.38;;;;;;;8.08;94.96;101706.21;1680503;84;26424;-85
2022/10/10 07:55:06;;;;;;;22.77;14.78;;;;;;;8.21;94.78;101700.04;1681326;84;25824;-85
2022/10/10 07:57:34;;;;;;;24.12;14.43;;;;;;;8.32;94.23;101702.58;1682098;84;25765;-85
2022/10/10 08:00:08;;;;;;;22.30;15.03;;;;;;;8.42;94.19;101692.72;1682398;84;25988;-85
2022/10/10 08:02:41;;;;;;;24.32;15.48;;;;;;;8.55;94.20;101697.73;1684619;84;27515;-85
2022/10/10 08:05:08;;;;;;;24.05;15.50;;;;;;;8.67;93.95;101692.53;1689379;84;26353;-86
2022/10/10 08:07:34;;;;;;;17.50;12.95;;;;;;;8.79;93.59;101690.52;1680750;84;26059;-84
2022/10/10 08:10:01;;;;;;;19.45;14.10;;;;;;;8.87;93.02;101677.25;1686078;84;26465;-83
2022/10/10 08:12:28;;;;;;;20.70;13.68;;;;;;;8.99;92.65;101681.39;1686199;84;25908;-85
2022/10/10 08:14:54;;;;;;;16.67;12.30;;;;;;;9.06;92.51;101683.81;1686261;84;27651;-83
2022/10/10 08:17:20;;;;;;;21.52;12.90;;;;;;;9.16;92.35;101677.41;1688844;84;25842;-83
2022/10/10 08:19:47;;;;;;;17.67;12.98;;;;;;;9.27;91.99;101680.36;1686507;84;26469;-87
2022/10/10 08:22:13;;;;;;;16.52;11.38;;;;;;;9.38;91.74;101677.46;1681956;84;26581;-84
2022/10/10 08:24:39;;;;;;;17.80;12.05;;;;;;;9.47;91.60;101674.36;1673680;84;25824;-85
2022/10/10 08:27:05;;;;;;;14.35;10.43;;;;;;;9.60;91.30;101670.81;1683894;84;27531;-83
2022/10/10 08:29:32;;;;;;;14.23;9.40;;;;;;;9.69;90.85;101675.20;1683551;84;25321;-89
2022/10/10 08:31:58;;;;;;;12.28;9.23;;;;;;;9.80;90.65;101668.28;1666329;85;25940;-87
2022/10/10 08:34:25;;;;;;;16.20;9.48;;;;;;;9.90;90.09;101662.36;1647069;85;25848;-84
2022/10/10 08:36:51;;;;;;;9.63;7.53;;;;;;;9.99;89.86;101660.05;1658902;86;25359;-85
2022/10/10 08:39:17;;;;;;;12.60;7.47;;;;;;;10.09;89.24;101651.44;1685215;84;27487;-84
2022/10/10 08:41:54;;;;;;;10.40;7.58;;;;;;;10.17;88.68;101643.48;1690124;84;25766;-86
2022/10/10 08:44:41;;;;;;;13.48;7.20;;;;;;;10.27;88.43;101644.69;1688213;84;25774;-83
2022/10/10 08:47:40;;;;;;;8.13;6.53;;;;;;;10.36;87.78;101647.27;1687196;84;25794;-79
2022/10/10 08:50:40;;;;;;;14.40;5.90;;;;;;;10.45;87.11;101638.77;1684455;84;25784;-86
2022/10/10 08:53:20;;;;;;;7.08;5.00;;;;;;;10.54;86.84;101637.81;1692700;84;28293;-88
2022/10/10 08:55:48;;;;;;;8.60;5.35;;;;;;;10.65;86.65;101632.13;1679085;84;25848;-88
2022/10/10 08:58:34;;;;;;;6.05;5.35;;;;;;;10.73;86.39;101637.55;1688330;84;26187;-86
2022/10/10 09:01:18;;;;;;;6.58;4.45;;;;;;;10.81;85.62;101626.84;1691227;84;26010;-85
2022/10/10 09:03:57;;;;;;;12.00;6.37;;;;;;;10.92;85.26;101619.00;1660461;84;26105;-89
2022/10/10 09:06:35;;;;;;;6.53;5.08;;;;;;;11.01;84.88;101624.23;1679221;84;28183;-79
2022/10/10 09:09:22;;;;;;;6.30;4.60;;;;;;;11.11;84.49;101622.22;1684394;83;25778;-83
2022/10/10 09:12:20;;;;;;;7.50;5.25;;;;;;;11.19;83.33;101610.66;1646178;85;25882;-84
2022/10/10 09:15:13;;;;;;;10.35;5.80;;;;;;;11.25;83.07;101617.53;1630704;84;25931;-86
2022/10/10 09:18:10;;;;;;;9.43;5.95;;;;;;;11.34;82.94;101610.33;1634819;86;26125;-85
2022/10/10 09:20:51;;;;;;;6.95;4.55;;;;;;;11.44;82.48;101605.66;1648838;85;27510;-88
2022/10/10 09:23:24;;;;;;;8.80;4.72;;;;;;;11.53;81.81;101605.47;1665018;84;25841;-84
2022/10/10 09:26:07;;;;;;;8.28;7.47;;;;;;;11.60;80.96;101606.98;1657772;85;26451;-86
2022/10/10 09:28:48;;;;;;;6.78;4.42;;;;;;;11.66;80.80;101604.95;1636282;85;25794;-81
2022/10/10 09:31:20;;;;;;;;;;;;;;;11.72;80.37;101600.28;1684094;84;25908;-80
2022/10/10 09:33:58;;;;;;;6.80;3.58;;;;;;;11.78;79.85;101594.26;1678546;84;27485;-81
2022/10/10 09:36:33;;;;;;;4.87;3.92;;;;;;;11.86;79.57;101598.27;1671411;84;25718;-85
2022/10/10 09:39:36;;;;;;;8.10;4.65;;;;;;;11.96;79.25;101587.31;1680145;84;25882;-88
2022/10/10 09:42:11;;;;;;;9.68;7.30;;;;;;;12.04;78.63;101577.92;1604812;86;26082;-88
2022/10/10 09:44:39;;;;;;;9.40;4.67;;;;;;;12.10;78.54;101572.67;1657981;86;25867;-91
2022/10/10 09:47:06;;;;;;;6.92;5.37;;;;;;;12.18;77.78;101578.53;1692008;84;27544;-89
2022/10/10 09:49:34;;;;;;;5.33;4.35;;;;;;;12.23;77.16;101580.20;1646956;85;26481;-90
2022/10/10 09:52:24;;;;;;;12.20;8.10;;;;;;;12.29;76.79;101574.13;1687316;84;25887;-88
2022/10/10 09:55:08;;;;;;;6.40;4.05;;;;;;;12.33;76.60;101572.27;1676438;84;25825;-89
2022/10/10 09:57:40;;;;;;;14.73;9.95;;;;;;;12.42;76.68;101576.26;1622652;86;26084;-84
2022/10/10 10:00:30;;;;;;;4.80;3.30;;;;;;;12.50;76.23;101573.52;1650832;85;27464;-92
2022/10/10 10:03:19;;;;;;;6.23;4.33;;;;;;;12.57;75.94;101571.82;1685401;84;26256;-89
2022/10/10 10:05:58;;;;;;;5.83;4.10;;;;;;;12.63;75.97;101570.61;1682199;84;25335;-89
2022/10/10 10:08:35;;;;;;;10.00;4.00;;;;;;;12.72;75.68;101572.75;1674575;84;26521;-91
2022/10/10 10:11:04;;;;;;;7.33;4.12;;;;;;;12.81;75.52;101569.00;1667968;84;25329;-87
2022/10/10 10:13:34;;;;;;;4.50;3.45;;;;;;;12.87;74.74;101569.09;1694574;84;27468;-85
2022/10/10 10:16:11;;;;;;;5.58;4.60;;;;;;;12.93;74.74;101564.38;1658161;85;25915;-87
2022/10/10 10:18:44;;;;;;;4.50;3.27;;;;;;;13.01;74.73;101568.84;1657977;85;25728;-85
2022/10/10 10:21:22;;;;;;;5.90;3.80;;;;;;;13.08;74.83;101565.81;1634153;85;26498;-84
2022/10/10 10:24:00;;;;;;;5.83;3.47;;;;;;;13.17;74.29;101558.52;1621552;86;25974;-88
2022/10/10 10:26:45;;;;;;;6.65;5.15;;;;;;;13.22;74.04;101554.25;1666261;84;27457;-87
2022/10/10 10:29:32;;;;;;;6.45;3.80;;;;;;;13.28;73.35;101551.37;1650459;85;25320;-82
2022/10/10 10:32:24;;;;;;;5.53;3.85;;;;;;;13.33;72.54;101550.30;1654596;85;25761;-83
2022/10/10 10:35:02;;;;;;;5.15;3.02;;;;;;;13.38;72.13;101539.33;1645091;86;26542;-86
2022/10/10 10:37:45;;;;;;;5.97;3.65;;;;;;;13.45;72.22;101544.83;1626490;85;26012;-86
2022/10/10 10:40:37;;;;;;;4.10;2.92;;;;;;;13.51;71.67;101543.59;1648944;85;27460;-88
2022/10/10 10:43:24;;;;;;;6.37;3.50;;;;;;;13.57;71.20;101542.01;1677128;84;25804;-86
2022/10/10 10:46:04;;;;;;;4.12;3.30;;;;;;;13.61;70.47;101540.11;1680682;84;25316;-87
2022/10/10 10:48:42;;;;;;;7.22;3.40;;;;;;;13.65;70.57;101529.30;1688080;84;25828;-84
2022/10/10 10:51:39;;;;;;;4.00;3.30;;;;;;;13.72;70.41;101528.05;1652889;86;25821;-88
2022/10/10 10:54:23;;;;;;;3.67;3.20;;;;;;;13.77;70.07;101527.81;1682001;84;27485;-88
2022/10/10 10:56:57;;;;;;;4.87;3.55;;;;;;;13.83;70.52;101518.17;1652737;84;25676;-86
2022/10/10 10:59:50;;;;;;;5.70;3.50;;;;;;;13.91;70.69;101508.65;1654096;85;26032;-86
2022/10/10 11:02:51;;;;;;;4.30;3.40;;;;;;;13.98;70.44;101516.82;1635673;85;25894;-84
2022/10/10 11:05:34;;;;;;;3.55;2.72;;;;;;;14.03;69.60;101505.80;1678042;84;25351;-90
2022/10/10 11:08:24;;;;;;;4.22;3.83;;;;;;;14.07;69.34;101503.59;1662449;84;27941;-88
2022/10/10 11:11:05;;;;;;;4.83;3.85;;;;;;;14.11;68.86;101504.37;1647822;86;25892;-87
2022/10/10 11:13:48;;;;;;;5.50;3.22;;;;;;;14.15;68.45;101500.28;1647082;85;26050;-87
2022/10/10 11:16:26;;;;;;;7.58;5.35;;;;;;;14.20;68.35;101495.14;1803258;75;25907;-80
2022/10/10 11:19:14;;;;;;;4.67;3.55;;;;;;;14.23;68.36;101496.12;1787655;78;26357;-85
2022/10/10 11:21:49;;;;;;;5.75;2.65;;;;;;;14.29;68.30;101491.35;1789872;78;27466;-81
2022/10/10 11:24:42;;;;;;;4.47;3.33;;;;;;;14.34;67.79;101485.39;1782980;78;25797;-84
2022/10/10 11:27:26;;;;;;;4.08;2.42;;;;;;;14.39;68.07;101485.14;1828498;77;25795;-84
2022/10/10 11:30:19;;;;;;;6.08;2.98;;;;;;;14.47;66.99;101477.47;1797518;75;25843;-83
2022/10/10 11:32:59;;;;;;;5.08;2.72;;;;;;;14.51;66.76;101480.09;1772719;80;26099;-82
2022/10/10 11:35:49;;;;;;;3.90;2.70;;;;;;;14.54;66.33;101468.95;1758640;80;27462;-85
2022/10/10 11:38:33;;;;;;;5.15;2.77;;;;;;;14.57;66.20;101463.99;1779281;80;26442;-87
2022/10/10 11:41:13;;;;;;;3.90;2.52;;;;;;;14.64;66.71;101467.60;1728677;82;25897;-86
2022/10/10 11:43:45;;;;;;;3.90;2.52;;;;;;;14.69;65.98;101449.50;1781457;80;25781;-86